createdAt,value
2017-09-12T00:00:24.712Z,992.9
2017-09-12T00:00:50.876Z,992.89
2017-09-12T00:01:17.002Z,992.94
2017-09-12T00:01:43.124Z,992.91
2017-09-12T00:02:09.248Z,992.84
2017-09-12T00:02:35.370Z,992.92
2017-09-12T00:03:01.512Z,992.88
2017-09-12T00:03:27.642Z,992.9
2017-09-12T00:03:53.766Z,992.88
2017-09-12T00:04:19.890Z,992.89
2017-09-12T00:04:46.018Z,992.95
2017-09-12T00:05:12.140Z,992.88
2017-09-12T00:05:38.256Z,992.91
2017-09-12T00:06:04.381Z,992.93
2017-09-12T00:06:30.524Z,992.92
2017-09-12T00:06:56.645Z,992.92
2017-09-12T00:07:22.767Z,992.94
2017-09-12T00:07:48.891Z,992.94
2017-09-12T00:08:15.012Z,992.89
2017-09-12T00:08:41.138Z,992.87
2017-09-12T00:09:07.265Z,992.86
2017-09-12T00:09:33.388Z,992.89
2017-09-12T00:09:59.519Z,992.89
2017-09-12T00:10:25.638Z,992.82
2017-09-12T00:10:51.761Z,992.93
2017-09-12T00:11:17.877Z,992.88
2017-09-12T00:11:44.026Z,992.88
2017-09-12T00:12:10.143Z,992.77
2017-09-12T00:12:36.265Z,992.87
2017-09-12T00:13:02.396Z,992.85
2017-09-12T00:13:28.515Z,992.8
2017-09-12T00:13:54.639Z,992.85
2017-09-12T00:14:20.761Z,992.95
2017-09-12T00:14:46.890Z,992.7
2017-09-12T00:15:13.016Z,992.92
2017-09-12T00:15:39.136Z,992.8
2017-09-12T00:16:05.266Z,992.86
2017-09-12T00:16:31.386Z,992.83
2017-09-12T00:16:57.503Z,992.9
2017-09-12T00:17:23.632Z,992.89
2017-09-12T00:17:49.759Z,992.87
2017-09-12T00:18:15.878Z,992.9
2017-09-12T00:18:42.001Z,992.91
2017-09-12T00:19:08.145Z,992.92
2017-09-12T00:19:34.267Z,992.92
2017-09-12T00:20:00.397Z,992.89
2017-09-12T00:20:26.520Z,992.98
2017-09-12T00:20:52.639Z,992.88
2017-09-12T00:21:18.786Z,992.9
2017-09-12T00:21:44.902Z,992.82
2017-09-12T00:22:11.023Z,992.86
2017-09-12T00:22:37.149Z,992.97
2017-09-12T00:23:03.277Z,992.87
2017-09-12T00:23:29.399Z,992.96
2017-09-12T00:23:55.521Z,992.94
2017-09-12T00:24:21.648Z,992.81
2017-09-12T00:24:47.767Z,992.92
2017-09-12T00:25:13.896Z,992.88
2017-09-12T00:25:40.023Z,992.92
2017-09-12T00:26:06.142Z,992.85
2017-09-12T00:26:32.269Z,992.88
2017-09-12T00:26:58.394Z,992.84
2017-09-12T00:27:24.510Z,992.87
2017-09-12T00:27:50.633Z,992.92
2017-09-12T00:28:16.759Z,992.84
2017-09-12T00:28:42.877Z,992.85
2017-09-12T00:29:09.032Z,992.96
2017-09-12T00:29:35.153Z,992.94
2017-09-12T00:30:01.283Z,992.98
2017-09-12T00:30:27.401Z,992.96
2017-09-12T00:30:53.527Z,992.98
2017-09-12T00:31:19.653Z,992.94
2017-09-12T00:31:45.778Z,993.11
2017-09-12T00:32:11.906Z,992.91
2017-09-12T00:32:38.024Z,993.01
2017-09-12T00:33:04.143Z,993
2017-09-12T00:33:30.274Z,993.06
2017-09-12T00:33:56.391Z,993.01
2017-09-12T00:34:22.513Z,993.01
2017-09-12T00:34:48.632Z,993.05
2017-09-12T00:35:14.781Z,993.01
2017-09-12T00:35:40.901Z,993.01
2017-09-12T00:36:07.051Z,993.01
2017-09-12T00:36:33.179Z,993.07
2017-09-12T00:36:59.317Z,993.02
2017-09-12T00:37:25.444Z,993.03
2017-09-12T00:37:51.572Z,993.11
2017-09-12T00:38:17.689Z,993.05
2017-09-12T00:38:43.813Z,993.13
2017-09-12T00:39:09.942Z,993.08
2017-09-12T00:39:36.062Z,993.05
2017-09-12T00:40:02.187Z,993.03
2017-09-12T00:40:28.313Z,993.06
2017-09-12T00:40:54.434Z,993.15
2017-09-12T00:41:20.551Z,993.07
2017-09-12T00:41:46.680Z,993.02
2017-09-12T00:42:12.809Z,993.14
2017-09-12T00:42:38.928Z,993.13
2017-09-12T00:43:05.054Z,993.09
2017-09-12T00:43:31.171Z,993.12
2017-09-12T00:43:57.293Z,993.11
2017-09-12T00:44:23.418Z,993.08
2017-09-12T00:44:49.541Z,993.14
2017-09-12T00:45:15.667Z,993.14
2017-09-12T00:45:41.786Z,993.15
2017-09-12T00:46:07.915Z,993.12
2017-09-12T00:46:34.034Z,993.08
2017-09-12T00:47:00.160Z,993.08
2017-09-12T00:47:26.294Z,993.15
2017-09-12T00:47:52.465Z,993.11
2017-09-12T00:48:18.555Z,993.16
2017-09-12T00:48:44.674Z,993.11
2017-09-12T00:49:10.802Z,993.12
2017-09-12T00:49:36.919Z,993.16
2017-09-12T00:50:03.070Z,993.1
2017-09-12T00:50:29.196Z,993.1
2017-09-12T00:50:55.334Z,993.07
2017-09-12T00:51:21.483Z,993.1
2017-09-12T00:51:47.628Z,993.16
2017-09-12T00:52:13.776Z,993.17
2017-09-12T00:52:39.920Z,993.1
2017-09-12T00:53:06.074Z,993.15
2017-09-12T00:53:32.224Z,993.13
2017-09-12T00:53:58.371Z,993.08
2017-09-12T00:54:24.522Z,993.07
2017-09-12T00:54:50.672Z,992.99
2017-09-12T00:55:16.813Z,993.07
2017-09-12T00:55:42.965Z,993.06
2017-09-12T00:56:09.115Z,993.05
2017-09-12T00:56:35.276Z,993.22
2017-09-12T00:57:01.398Z,993.12
2017-09-12T00:57:27.549Z,993.16
2017-09-12T00:57:53.699Z,993.19
2017-09-12T00:58:19.843Z,993.12
2017-09-12T00:58:45.989Z,993.09
2017-09-12T00:59:12.129Z,993.14
2017-09-12T00:59:38.281Z,993.17
2017-09-12T01:00:04.433Z,993.12
2017-09-12T01:00:30.573Z,993.1
2017-09-12T01:00:56.719Z,993.14
2017-09-12T01:01:22.865Z,993.12
2017-09-12T01:01:49.012Z,993.13
2017-09-12T01:02:15.168Z,993.22
2017-09-12T01:02:41.306Z,993.17
2017-09-12T01:03:07.453Z,993.18
2017-09-12T01:03:33.608Z,993.12
2017-09-12T01:03:59.752Z,993.2
2017-09-12T01:04:25.909Z,993.16
2017-09-12T01:04:52.069Z,993.18
2017-09-12T01:05:18.212Z,993.18
2017-09-12T01:05:44.361Z,993.17
2017-09-12T01:06:10.503Z,993.16
2017-09-12T01:06:36.646Z,993.19
2017-09-12T01:07:02.798Z,993.18
2017-09-12T01:07:28.948Z,993.19
2017-09-12T01:07:55.092Z,993.21
2017-09-12T01:08:21.236Z,993.18
2017-09-12T01:08:47.391Z,993.15
2017-09-12T01:09:13.531Z,993.23
2017-09-12T01:09:39.685Z,993.19
2017-09-12T01:10:05.828Z,993.17
2017-09-12T01:10:31.979Z,993.25
2017-09-12T01:10:58.126Z,993.2
2017-09-12T01:11:24.271Z,993.23
2017-09-12T01:11:50.418Z,993.28
2017-09-12T01:12:16.558Z,993.23
2017-09-12T01:12:42.701Z,993.31
2017-09-12T01:13:08.875Z,993.31
2017-09-12T01:13:35.023Z,993.31
2017-09-12T01:14:01.173Z,993.29
2017-09-12T01:14:27.324Z,993.23
2017-09-12T01:14:53.471Z,993.27
2017-09-12T01:15:19.616Z,993.27
2017-09-12T01:15:45.760Z,993.34
2017-09-12T01:16:11.903Z,993.34
2017-09-12T01:16:38.050Z,993.32
2017-09-12T01:17:04.200Z,993.27
2017-09-12T01:17:30.341Z,993.4
2017-09-12T01:17:56.488Z,993.36
2017-09-12T01:18:22.644Z,993.37
2017-09-12T01:18:48.788Z,993.37
2017-09-12T01:19:14.938Z,993.44
2017-09-12T01:19:41.087Z,993.43
2017-09-12T01:20:07.228Z,993.33
2017-09-12T01:20:33.382Z,993.38
2017-09-12T01:20:59.524Z,993.39
2017-09-12T01:21:25.673Z,993.44
2017-09-12T01:21:51.822Z,993.38
2017-09-12T01:22:17.970Z,993.35
2017-09-12T01:22:44.120Z,993.4
2017-09-12T01:23:10.263Z,993.47
2017-09-12T01:23:36.415Z,993.43
2017-09-12T01:24:02.556Z,993.41
2017-09-12T01:24:28.708Z,993.47
2017-09-12T01:24:54.856Z,993.4
2017-09-12T01:25:20.995Z,993.48
2017-09-12T01:25:47.145Z,993.42
2017-09-12T01:26:13.291Z,993.39
2017-09-12T01:26:39.435Z,993.38
2017-09-12T01:27:05.580Z,993.47
2017-09-12T01:27:31.723Z,993.41
2017-09-12T01:27:57.874Z,993.36
2017-09-12T01:28:24.023Z,993.34
2017-09-12T01:28:50.167Z,993.44
2017-09-12T01:29:16.318Z,993.32
2017-09-12T01:29:42.463Z,993.33
2017-09-12T01:30:08.609Z,993.47
2017-09-12T01:30:34.752Z,993.33
2017-09-12T01:31:00.906Z,993.37
2017-09-12T01:31:27.045Z,993.38
2017-09-12T01:31:53.188Z,993.36
2017-09-12T01:32:19.343Z,993.33
2017-09-12T01:32:45.490Z,993.29
2017-09-12T01:33:11.638Z,993.34
2017-09-12T01:33:37.788Z,993.39
2017-09-12T01:34:03.934Z,993.35
2017-09-12T01:34:30.086Z,993.42
2017-09-12T01:34:56.229Z,993.38
2017-09-12T01:35:22.373Z,993.31
2017-09-12T01:35:48.520Z,993.43
2017-09-12T01:36:14.665Z,993.37
2017-09-12T01:36:40.813Z,993.31
2017-09-12T01:37:06.962Z,993.32
2017-09-12T01:37:33.111Z,993.39
2017-09-12T01:37:59.257Z,993.43
2017-09-12T01:38:25.406Z,993.41
2017-09-12T01:38:51.555Z,993.37
2017-09-12T01:39:17.710Z,993.44
2017-09-12T01:39:43.864Z,993.42
2017-09-12T01:40:10.004Z,993.41
2017-09-12T01:40:36.152Z,993.4
2017-09-12T01:41:02.303Z,993.46
2017-09-12T01:41:28.474Z,993.54
2017-09-12T01:41:54.613Z,993.3
2017-09-12T01:42:20.762Z,993.54
2017-09-12T01:42:46.911Z,993.48
2017-09-12T01:43:13.046Z,993.42
2017-09-12T01:43:39.198Z,993.45
2017-09-12T01:44:05.347Z,993.45
2017-09-12T01:44:31.493Z,993.36
2017-09-12T01:44:57.665Z,993.5
2017-09-12T01:45:23.809Z,993.51
2017-09-12T01:45:49.960Z,993.6
2017-09-12T01:46:16.108Z,993.43
2017-09-12T01:46:42.252Z,993.47
2017-09-12T01:47:08.405Z,993.48
2017-09-12T01:47:34.553Z,993.48
2017-09-12T01:48:00.696Z,993.45
2017-09-12T01:48:26.847Z,993.49
2017-09-12T01:48:52.991Z,993.46
2017-09-12T01:49:19.133Z,993.54
2017-09-12T01:49:45.285Z,993.46
2017-09-12T01:50:11.436Z,993.49
2017-09-12T01:50:37.580Z,993.49
2017-09-12T01:51:03.730Z,993.44
2017-09-12T01:51:29.872Z,993.46
2017-09-12T01:51:56.017Z,993.48
2017-09-12T01:52:22.169Z,993.48
2017-09-12T01:52:48.342Z,993.48
2017-09-12T01:53:14.484Z,993.45
2017-09-12T01:53:40.633Z,993.46
2017-09-12T01:54:06.784Z,993.48
2017-09-12T01:54:32.927Z,993.48
2017-09-12T01:54:59.078Z,993.53
2017-09-12T01:55:25.227Z,993.51
2017-09-12T01:55:51.393Z,993.49
2017-09-12T01:56:17.539Z,993.53
2017-09-12T01:56:43.689Z,993.57
2017-09-12T01:57:09.838Z,993.5
2017-09-12T01:57:35.984Z,993.56
2017-09-12T01:58:02.138Z,993.5
2017-09-12T01:58:28.277Z,993.54
2017-09-12T01:58:54.427Z,993.6
2017-09-12T01:59:20.570Z,993.56
2017-09-12T01:59:46.717Z,993.52
2017-09-12T02:00:12.861Z,993.55
2017-09-12T02:00:39.011Z,993.58
2017-09-12T02:01:05.156Z,993.53
2017-09-12T02:01:31.298Z,993.54
2017-09-12T02:01:57.452Z,993.5
2017-09-12T02:02:23.592Z,993.52
2017-09-12T02:02:49.746Z,993.62
2017-09-12T02:03:15.891Z,993.69
2017-09-12T02:03:42.033Z,993.61
2017-09-12T02:04:08.182Z,993.57
2017-09-12T02:04:34.326Z,993.53
2017-09-12T02:05:00.469Z,993.57
2017-09-12T02:05:26.651Z,993.53
2017-09-12T02:05:52.795Z,993.54
2017-09-12T02:06:18.946Z,993.58
2017-09-12T02:06:45.090Z,993.49
2017-09-12T02:07:11.240Z,993.54
2017-09-12T02:07:37.385Z,993.55
2017-09-12T02:08:03.575Z,993.58
2017-09-12T02:08:29.712Z,993.5
2017-09-12T02:08:55.852Z,993.58
2017-09-12T02:09:21.997Z,993.51
2017-09-12T02:09:48.140Z,993.53
2017-09-12T02:10:14.293Z,993.57
2017-09-12T02:10:40.470Z,993.54
2017-09-12T02:11:06.619Z,993.61
2017-09-12T02:11:32.762Z,993.61
2017-09-12T02:11:58.914Z,993.51
2017-09-12T02:12:25.055Z,993.55
2017-09-12T02:12:51.197Z,993.55
2017-09-12T02:13:17.380Z,993.59
2017-09-12T02:13:43.497Z,993.56
2017-09-12T02:14:09.645Z,993.58
2017-09-12T02:14:35.793Z,993.56
2017-09-12T02:15:01.939Z,993.54
2017-09-12T02:15:28.080Z,993.52
2017-09-12T02:15:54.223Z,993.5
2017-09-12T02:16:20.371Z,993.52
2017-09-12T02:16:46.524Z,993.55
2017-09-12T02:17:12.663Z,993.51
2017-09-12T02:17:38.816Z,993.58
2017-09-12T02:18:04.964Z,993.55
2017-09-12T02:18:31.104Z,993.57
2017-09-12T02:18:57.251Z,993.57
2017-09-12T02:19:23.402Z,993.54
2017-09-12T02:19:49.543Z,993.54
2017-09-12T02:20:15.697Z,993.61
2017-09-12T02:20:41.841Z,993.56
2017-09-12T02:21:07.986Z,993.55
2017-09-12T02:21:34.134Z,993.61
2017-09-12T02:22:00.329Z,993.59
2017-09-12T02:22:26.477Z,993.58
2017-09-12T02:22:52.620Z,993.64
2017-09-12T02:23:18.770Z,993.54
2017-09-12T02:23:44.912Z,993.55
2017-09-12T02:24:11.054Z,993.58
2017-09-12T02:24:37.209Z,993.58
2017-09-12T02:25:03.350Z,993.54
2017-09-12T02:25:29.501Z,993.53
2017-09-12T02:25:55.669Z,993.56
2017-09-12T02:26:21.822Z,993.73
2017-09-12T02:26:47.969Z,993.57
2017-09-12T02:27:14.121Z,993.69
2017-09-12T02:27:40.267Z,993.55
2017-09-12T02:28:06.413Z,993.57
2017-09-12T02:28:32.561Z,993.58
2017-09-12T02:28:58.699Z,993.61
2017-09-12T02:29:24.849Z,993.56
2017-09-12T02:29:50.991Z,993.56
2017-09-12T02:30:17.143Z,993.6
2017-09-12T02:30:43.294Z,993.59
2017-09-12T02:31:09.439Z,993.62
2017-09-12T02:31:35.588Z,993.58
2017-09-12T02:32:01.758Z,993.63
2017-09-12T02:32:27.905Z,993.72
2017-09-12T02:32:54.048Z,993.66
2017-09-12T02:33:20.200Z,993.61
2017-09-12T02:33:46.344Z,993.64
2017-09-12T02:34:12.491Z,993.66
2017-09-12T02:34:38.636Z,993.65
2017-09-12T02:35:04.778Z,993.68
2017-09-12T02:35:30.921Z,993.68
2017-09-12T02:35:57.079Z,993.59
2017-09-12T02:36:23.231Z,993.62
2017-09-12T02:36:49.377Z,993.6
2017-09-12T02:37:15.524Z,993.62
2017-09-12T02:37:41.698Z,993.56
2017-09-12T02:38:07.838Z,993.58
2017-09-12T02:38:33.993Z,993.6
2017-09-12T02:39:00.138Z,993.55
2017-09-12T02:39:26.288Z,993.56
2017-09-12T02:39:52.433Z,993.59
2017-09-12T02:40:18.608Z,993.58
2017-09-12T02:40:44.757Z,993.67
2017-09-12T02:41:10.899Z,993.6
2017-09-12T02:41:37.047Z,993.57
2017-09-12T02:42:03.195Z,993.66
2017-09-12T02:42:29.339Z,993.6
2017-09-12T02:42:55.490Z,993.6
2017-09-12T02:43:21.641Z,993.57
2017-09-12T02:43:47.781Z,993.58
2017-09-12T02:44:13.928Z,993.56
2017-09-12T02:44:40.068Z,993.58
2017-09-12T02:45:06.207Z,993.57
2017-09-12T02:45:32.359Z,993.58
2017-09-12T02:45:58.505Z,993.59
2017-09-12T02:46:24.649Z,993.62
2017-09-12T02:46:50.797Z,993.61
2017-09-12T02:47:16.941Z,993.58
2017-09-12T02:47:43.085Z,993.61
2017-09-12T02:48:09.241Z,993.58
2017-09-12T02:48:35.391Z,993.64
2017-09-12T02:49:01.529Z,993.62
2017-09-12T02:49:27.685Z,993.63
2017-09-12T02:49:53.829Z,993.58
2017-09-12T02:50:19.972Z,993.6
2017-09-12T02:50:46.121Z,993.63
2017-09-12T02:51:12.267Z,993.6
2017-09-12T02:51:38.414Z,993.58
2017-09-12T02:52:04.555Z,993.73
2017-09-12T02:52:30.708Z,993.61
2017-09-12T02:52:56.852Z,993.61
2017-09-12T02:53:23.005Z,993.57
2017-09-12T02:53:49.155Z,993.59
2017-09-12T02:54:15.296Z,993.62
2017-09-12T02:54:41.438Z,993.59
2017-09-12T02:55:07.586Z,993.61
2017-09-12T02:55:33.739Z,993.68
2017-09-12T02:55:59.887Z,993.63
2017-09-12T02:56:26.034Z,993.63
2017-09-12T02:56:52.184Z,993.68
2017-09-12T02:57:18.326Z,993.6
2017-09-12T02:57:44.481Z,993.6
2017-09-12T02:58:10.628Z,993.64
2017-09-12T02:58:36.770Z,993.59
2017-09-12T02:59:02.922Z,993.56
2017-09-12T02:59:29.063Z,993.59
2017-09-12T02:59:55.214Z,993.59
2017-09-12T03:00:21.368Z,993.59
2017-09-12T03:00:47.499Z,993.59
2017-09-12T03:01:13.652Z,993.55
2017-09-12T03:01:39.805Z,993.56
2017-09-12T03:02:05.954Z,993.59
2017-09-12T03:02:32.104Z,993.63
2017-09-12T03:02:58.244Z,993.59
2017-09-12T03:03:24.389Z,993.58
2017-09-12T03:03:50.535Z,993.57
2017-09-12T03:04:16.681Z,993.6
2017-09-12T03:04:42.856Z,993.63
2017-09-12T03:05:09.030Z,993.53
2017-09-12T03:05:35.174Z,993.58
2017-09-12T03:06:01.320Z,993.63
2017-09-12T03:06:27.467Z,993.6
2017-09-12T03:06:53.615Z,993.66
2017-09-12T03:07:19.768Z,993.65
2017-09-12T03:07:45.907Z,993.61
2017-09-12T03:08:12.057Z,993.62
2017-09-12T03:08:38.207Z,993.63
2017-09-12T03:09:04.350Z,993.62
2017-09-12T03:09:30.503Z,993.63
2017-09-12T03:09:56.649Z,993.66
2017-09-12T03:10:22.792Z,993.62
2017-09-12T03:10:48.942Z,993.62
2017-09-12T03:11:15.086Z,993.61
2017-09-12T03:11:41.239Z,993.6
2017-09-12T03:12:07.390Z,993.62
2017-09-12T03:12:33.552Z,993.68
2017-09-12T03:12:59.706Z,993.63
2017-09-12T03:13:25.873Z,993.62
2017-09-12T03:13:52.025Z,993.61
2017-09-12T03:14:18.159Z,993.59
2017-09-12T03:14:44.306Z,993.66
2017-09-12T03:15:10.460Z,993.64
2017-09-12T03:15:36.611Z,993.6
2017-09-12T03:16:02.763Z,993.59
2017-09-12T03:16:28.939Z,993.63
2017-09-12T03:16:55.075Z,993.66
2017-09-12T03:17:21.227Z,993.64
2017-09-12T03:17:47.374Z,993.73
2017-09-12T03:18:13.522Z,993.64
2017-09-12T03:18:39.673Z,993.65
2017-09-12T03:19:05.840Z,993.67
2017-09-12T03:19:31.994Z,993.67
2017-09-12T03:19:58.132Z,993.66
2017-09-12T03:20:24.280Z,993.67
2017-09-12T03:20:50.430Z,993.65
2017-09-12T03:21:16.577Z,993.64
2017-09-12T03:21:42.723Z,993.65
2017-09-12T03:22:08.875Z,993.65
2017-09-12T03:22:35.022Z,993.66
2017-09-12T03:23:01.170Z,993.67
2017-09-12T03:23:27.318Z,993.83
2017-09-12T03:23:53.467Z,993.73
2017-09-12T03:24:19.617Z,993.73
2017-09-12T03:24:45.759Z,993.74
2017-09-12T03:25:11.898Z,993.78
2017-09-12T03:25:38.051Z,993.77
2017-09-12T03:26:04.202Z,993.76
2017-09-12T03:26:30.343Z,993.72
2017-09-12T03:26:56.485Z,993.82
2017-09-12T03:27:22.639Z,993.86
2017-09-12T03:27:48.781Z,993.78
2017-09-12T03:28:14.965Z,993.81
2017-09-12T03:28:41.087Z,993.82
2017-09-12T03:29:07.226Z,993.82
2017-09-12T03:29:33.379Z,993.81
2017-09-12T03:29:59.519Z,993.79
2017-09-12T03:30:25.671Z,993.85
2017-09-12T03:30:51.817Z,993.84
2017-09-12T03:31:17.962Z,993.78
2017-09-12T03:31:44.109Z,993.84
2017-09-12T03:32:10.256Z,993.85
2017-09-12T03:32:36.408Z,993.83
2017-09-12T03:33:02.553Z,993.84
2017-09-12T03:33:28.703Z,993.81
2017-09-12T03:33:54.849Z,993.8
2017-09-12T03:34:20.994Z,993.82
2017-09-12T03:34:47.149Z,993.85
2017-09-12T03:35:13.289Z,993.87
2017-09-12T03:35:39.468Z,993.86
2017-09-12T03:36:05.632Z,993.82
2017-09-12T03:36:31.778Z,993.87
2017-09-12T03:36:57.928Z,993.85
2017-09-12T03:37:24.072Z,993.84
2017-09-12T03:37:50.225Z,993.94
2017-09-12T03:38:16.372Z,993.84
2017-09-12T03:38:42.521Z,993.85
2017-09-12T03:39:08.668Z,993.82
2017-09-12T03:39:34.815Z,993.82
2017-09-12T03:40:00.953Z,993.88
2017-09-12T03:40:27.107Z,993.91
2017-09-12T03:40:53.244Z,993.93
2017-09-12T03:41:19.397Z,993.85
2017-09-12T03:41:45.543Z,993.87
2017-09-12T03:42:11.688Z,993.9
2017-09-12T03:42:37.835Z,993.93
2017-09-12T03:43:03.987Z,993.86
2017-09-12T03:43:30.136Z,993.86
2017-09-12T03:43:56.285Z,993.89
2017-09-12T03:44:22.432Z,993.91
2017-09-12T03:44:48.585Z,993.89
2017-09-12T03:45:14.735Z,993.87
2017-09-12T03:45:40.882Z,993.87
2017-09-12T03:46:07.024Z,993.95
2017-09-12T03:46:33.172Z,993.92
2017-09-12T03:46:59.309Z,993.97
2017-09-12T03:47:25.465Z,993.93
2017-09-12T03:47:51.605Z,993.96
2017-09-12T03:48:17.758Z,994.01
2017-09-12T03:48:43.906Z,993.95
2017-09-12T03:49:10.048Z,993.92
2017-09-12T03:49:36.199Z,993.98
2017-09-12T03:50:02.345Z,993.95
2017-09-12T03:50:28.494Z,993.94
2017-09-12T03:50:54.644Z,994
2017-09-12T03:51:20.786Z,994.02
2017-09-12T03:51:46.937Z,993.97
2017-09-12T03:52:13.089Z,993.99
2017-09-12T03:52:39.237Z,994.03
2017-09-12T03:53:05.415Z,994.04
2017-09-12T03:53:31.558Z,994.03
2017-09-12T03:53:57.711Z,994.01
2017-09-12T03:54:23.852Z,993.94
2017-09-12T03:54:49.998Z,994.02
2017-09-12T03:55:16.146Z,994.07
2017-09-12T03:55:42.291Z,994.06
2017-09-12T03:56:08.438Z,994.13
2017-09-12T03:56:34.584Z,994.15
2017-09-12T03:57:00.733Z,994.05
2017-09-12T03:57:26.876Z,994.11
2017-09-12T03:57:53.025Z,994.09
2017-09-12T03:58:19.176Z,994.11
2017-09-12T03:58:45.324Z,994.12
2017-09-12T03:59:11.467Z,994.18
2017-09-12T03:59:37.625Z,994.09
2017-09-12T04:00:03.764Z,994.12
2017-09-12T04:00:29.912Z,994.26
2017-09-12T04:00:56.051Z,994.19
2017-09-12T04:01:22.207Z,994.05
2017-09-12T04:01:48.354Z,994.22
2017-09-12T04:02:14.498Z,994.19
2017-09-12T04:02:40.652Z,994.21
2017-09-12T04:03:06.793Z,994.12
2017-09-12T04:03:32.945Z,994.17
2017-09-12T04:03:59.088Z,994.2
2017-09-12T04:04:25.232Z,994.16
2017-09-12T04:04:51.375Z,994.16
2017-09-12T04:05:17.544Z,994.12
2017-09-12T04:05:43.692Z,994.23
2017-09-12T04:06:09.846Z,994.17
2017-09-12T04:06:35.998Z,994.19
2017-09-12T04:07:02.173Z,994.13
2017-09-12T04:07:28.323Z,994.17
2017-09-12T04:07:54.474Z,994.18
2017-09-12T04:08:20.614Z,994.19
2017-09-12T04:08:46.769Z,994.18
2017-09-12T04:09:12.946Z,994.15
2017-09-12T04:09:39.093Z,994.13
2017-09-12T04:10:05.278Z,994.13
2017-09-12T04:10:31.411Z,994.14
2017-09-12T04:10:57.566Z,994.24
2017-09-12T04:11:23.715Z,994.19
2017-09-12T04:11:49.857Z,994.13
2017-09-12T04:12:16.009Z,994.22
2017-09-12T04:12:42.156Z,994.15
2017-09-12T04:13:08.300Z,994.15
2017-09-12T04:13:34.446Z,994.19
2017-09-12T04:14:00.602Z,994.17
2017-09-12T04:14:26.741Z,994.15
2017-09-12T04:14:52.889Z,994.26
2017-09-12T04:15:19.038Z,994.32
2017-09-12T04:15:45.189Z,994.22
2017-09-12T04:16:11.333Z,994.25
2017-09-12T04:16:37.484Z,994.22
2017-09-12T04:17:03.624Z,994.23
2017-09-12T04:17:29.772Z,994.27
2017-09-12T04:17:55.923Z,994.3
2017-09-12T04:18:22.066Z,994.29
2017-09-12T04:18:48.221Z,994.28
2017-09-12T04:19:14.371Z,994.31
2017-09-12T04:19:40.513Z,994.3
2017-09-12T04:20:06.664Z,994.33
2017-09-12T04:20:32.820Z,994.31
2017-09-12T04:20:58.965Z,994.35
2017-09-12T04:21:25.100Z,994.36
2017-09-12T04:21:51.252Z,994.4
2017-09-12T04:22:17.422Z,994.36
2017-09-12T04:22:43.543Z,994.36
2017-09-12T04:23:09.690Z,994.37
2017-09-12T04:23:35.834Z,994.35
2017-09-12T04:24:01.978Z,994.41
2017-09-12T04:24:28.122Z,994.4
2017-09-12T04:24:54.272Z,994.38
2017-09-12T04:25:20.418Z,994.38
2017-09-12T04:25:46.571Z,994.39
2017-09-12T04:26:12.718Z,994.37
2017-09-12T04:26:38.866Z,994.43
2017-09-12T04:27:05.010Z,994.39
2017-09-12T04:27:31.166Z,994.43
2017-09-12T04:27:57.306Z,994.42
2017-09-12T04:28:23.457Z,994.37
2017-09-12T04:28:49.607Z,994.37
2017-09-12T04:29:15.782Z,994.4
2017-09-12T04:29:41.936Z,994.39
2017-09-12T04:30:08.101Z,994.37
2017-09-12T04:30:34.245Z,994.4
2017-09-12T04:31:00.390Z,994.44
2017-09-12T04:31:26.529Z,994.38
2017-09-12T04:31:52.682Z,994.43
2017-09-12T04:32:18.829Z,994.38
2017-09-12T04:32:44.977Z,994.34
2017-09-12T04:33:11.126Z,994.36
2017-09-12T04:33:37.268Z,994.31
2017-09-12T04:34:03.423Z,994.37
2017-09-12T04:34:29.567Z,994.4
2017-09-12T04:34:55.749Z,994.4
2017-09-12T04:35:21.917Z,994.39
2017-09-12T04:35:48.071Z,994.43
2017-09-12T04:36:14.211Z,994.41
2017-09-12T04:36:40.360Z,994.39
2017-09-12T04:37:06.505Z,994.36
2017-09-12T04:37:32.659Z,994.43
2017-09-12T04:37:58.806Z,994.37
2017-09-12T04:38:24.951Z,994.37
2017-09-12T04:38:51.100Z,994.4
2017-09-12T04:39:17.247Z,994.34
2017-09-12T04:39:43.392Z,994.34
2017-09-12T04:40:09.541Z,994.45
2017-09-12T04:40:35.687Z,994.35
2017-09-12T04:41:01.836Z,994.39
2017-09-12T04:41:27.986Z,994.36
2017-09-12T04:41:54.183Z,994.36
2017-09-12T04:42:20.337Z,994.42
2017-09-12T04:42:46.483Z,994.3
2017-09-12T04:43:12.636Z,994.37
2017-09-12T04:43:38.784Z,994.34
2017-09-12T04:44:04.928Z,994.35
2017-09-12T04:44:31.071Z,994.39
2017-09-12T04:44:57.220Z,994.4
2017-09-12T04:45:23.358Z,994.4
2017-09-12T04:45:49.516Z,994.33
2017-09-12T04:46:15.658Z,994.27
2017-09-12T04:46:41.808Z,994.36
2017-09-12T04:47:07.951Z,994.35
2017-09-12T04:47:34.124Z,994.38
2017-09-12T04:48:00.274Z,994.32
2017-09-12T04:48:26.410Z,994.44
2017-09-12T04:48:52.563Z,994.31
2017-09-12T04:49:18.705Z,994.34
2017-09-12T04:49:44.857Z,994.36
2017-09-12T04:50:11.002Z,994.43
2017-09-12T04:50:37.147Z,994.36
2017-09-12T04:51:03.297Z,994.41
2017-09-12T04:51:29.449Z,994.45
2017-09-12T04:51:55.599Z,994.43
2017-09-12T04:52:21.746Z,994.41
2017-09-12T04:52:47.919Z,994.38
2017-09-12T04:53:14.071Z,994.4
2017-09-12T04:53:40.213Z,994.39
2017-09-12T04:54:06.367Z,994.45
2017-09-12T04:54:32.505Z,994.45
2017-09-12T04:54:58.651Z,994.43
2017-09-12T04:55:24.799Z,994.53
2017-09-12T04:55:50.945Z,994.41
2017-09-12T04:56:17.111Z,994.42
2017-09-12T04:56:43.239Z,994.47
2017-09-12T04:57:09.393Z,994.47
2017-09-12T04:57:35.530Z,994.48
2017-09-12T04:58:01.707Z,994.49
2017-09-12T04:58:27.830Z,994.53
2017-09-12T04:58:53.987Z,994.56
2017-09-12T04:59:20.134Z,994.52
2017-09-12T04:59:46.276Z,994.52
2017-09-12T05:00:12.432Z,994.55
2017-09-12T05:00:38.581Z,994.54
2017-09-12T05:01:04.729Z,994.62
2017-09-12T05:01:30.901Z,994.59
2017-09-12T05:01:57.048Z,994.62
2017-09-12T05:02:23.191Z,994.6
2017-09-12T05:02:49.342Z,994.61
2017-09-12T05:03:15.488Z,994.68
2017-09-12T05:03:41.634Z,994.64
2017-09-12T05:04:07.785Z,994.66
2017-09-12T05:04:33.926Z,994.68
2017-09-12T05:05:00.072Z,994.67
2017-09-12T05:05:26.223Z,994.69
2017-09-12T05:05:52.367Z,994.7
2017-09-12T05:06:18.510Z,994.75
2017-09-12T05:06:44.662Z,994.75
2017-09-12T05:07:10.812Z,994.74
2017-09-12T05:07:36.957Z,994.73
2017-09-12T05:08:03.103Z,994.75
2017-09-12T05:08:29.251Z,994.81
2017-09-12T05:08:55.397Z,994.75
2017-09-12T05:09:21.554Z,994.85
2017-09-12T05:09:47.694Z,994.75
2017-09-12T05:10:13.849Z,994.76
2017-09-12T05:10:39.998Z,994.78
2017-09-12T05:11:06.142Z,994.92
2017-09-12T05:11:32.293Z,994.76
2017-09-12T05:11:58.438Z,994.84
2017-09-12T05:12:24.589Z,994.85
2017-09-12T05:12:50.732Z,994.84
2017-09-12T05:13:16.876Z,994.89
2017-09-12T05:13:43.032Z,994.87
2017-09-12T05:14:09.205Z,994.88
2017-09-12T05:14:35.343Z,994.89
2017-09-12T05:15:01.487Z,994.85
2017-09-12T05:15:27.642Z,994.9
2017-09-12T05:15:53.787Z,994.91
2017-09-12T05:16:19.938Z,994.92
2017-09-12T05:16:46.113Z,994.98
2017-09-12T05:17:12.259Z,994.98
2017-09-12T05:17:38.405Z,994.88
2017-09-12T05:18:04.559Z,994.95
2017-09-12T05:18:30.713Z,994.9
2017-09-12T05:18:56.846Z,994.9
2017-09-12T05:19:22.995Z,994.92
2017-09-12T05:19:49.141Z,994.92
2017-09-12T05:20:15.295Z,994.91
2017-09-12T05:20:41.437Z,994.98
2017-09-12T05:21:07.592Z,995.01
2017-09-12T05:21:33.760Z,995
2017-09-12T05:21:59.909Z,995
2017-09-12T05:22:26.048Z,994.98
2017-09-12T05:22:52.199Z,995.04
2017-09-12T05:23:18.349Z,995
2017-09-12T05:23:44.501Z,994.99
2017-09-12T05:24:10.645Z,994.98
2017-09-12T05:24:36.795Z,995.1
2017-09-12T05:25:02.936Z,995.08
2017-09-12T05:25:29.080Z,995.02
2017-09-12T05:25:55.230Z,995.08
2017-09-12T05:26:21.377Z,995.07
2017-09-12T05:26:47.528Z,995.06
2017-09-12T05:27:13.676Z,995.02